createdAt,value
2019-01-24T00:00:18.356Z,90.40
2019-01-24T00:02:58.807Z,91.00
2019-01-24T00:05:38.884Z,91.90
2019-01-24T00:08:19.187Z,91.60
2019-01-24T00:10:59.178Z,91.50
2019-01-24T00:13:39.247Z,91.60
2019-01-24T00:16:19.102Z,91.30
2019-01-24T00:18:59.176Z,91.10
2019-01-24T00:21:39.130Z,90.90
2019-01-24T00:24:19.193Z,90.40
2019-01-24T00:26:59.338Z,90.20
2019-01-24T00:29:39.672Z,89.90
2019-01-24T00:32:19.851Z,90.20
2019-01-24T00:35:00.239Z,90.20
2019-01-24T00:37:40.654Z,90.40
2019-01-24T00:40:20.617Z,90.70
2019-01-24T00:43:00.709Z,90.80
2019-01-24T00:45:40.921Z,90.80
2019-01-24T00:48:21.521Z,91.00
2019-01-24T00:51:01.313Z,91.10
2019-01-24T00:53:41.354Z,91.20
2019-01-24T00:56:21.340Z,91.10
2019-01-24T00:59:01.585Z,90.80
2019-01-24T01:01:41.849Z,90.80
2019-01-24T01:04:21.916Z,90.50
2019-01-24T01:07:01.964Z,90.40
2019-01-24T01:09:42.181Z,90.20
2019-01-24T01:12:22.448Z,90.70
2019-01-24T01:15:02.610Z,91.10
2019-01-24T01:17:42.593Z,90.40
2019-01-24T01:20:22.559Z,90.20
2019-01-24T01:23:02.669Z,90.40
2019-01-24T01:25:42.910Z,90.10
2019-01-24T01:28:22.993Z,90.50
2019-01-24T01:31:02.980Z,90.80
2019-01-24T01:33:43.141Z,91.40
2019-01-24T01:36:23.193Z,91.90
2019-01-24T01:39:03.520Z,91.90
2019-01-24T01:41:43.671Z,92.00
2019-01-24T01:44:23.853Z,92.00
2019-01-24T01:47:03.881Z,91.20
2019-01-24T01:49:44.137Z,91.60
2019-01-24T01:52:24.018Z,91.50
2019-01-24T01:55:03.992Z,91.30
2019-01-24T01:57:43.979Z,91.60
2019-01-24T02:00:24.052Z,91.30
2019-01-24T02:03:04.436Z,91.20
2019-01-24T02:05:44.732Z,91.70
2019-01-24T02:08:24.717Z,92.70
2019-01-24T02:11:05.058Z,93.10
2019-01-24T02:13:45.192Z,93.00
2019-01-24T02:16:25.299Z,93.10
2019-01-24T02:19:05.317Z,93.10
2019-01-24T02:21:45.421Z,93.40
2019-01-24T02:24:25.509Z,93.70
2019-01-24T02:27:05.468Z,93.20
2019-01-24T02:29:47.557Z,92.60
2019-01-24T02:32:27.708Z,92.60
2019-01-24T02:35:07.769Z,92.60
2019-01-24T02:37:47.957Z,93.20
2019-01-24T02:40:28.031Z,93.90
2019-01-24T02:43:08.197Z,94.60
2019-01-24T02:45:48.633Z,94.80
2019-01-24T02:48:28.955Z,94.70
2019-01-24T02:51:09.231Z,94.50
2019-01-24T02:53:49.388Z,94.90
2019-01-24T02:56:29.427Z,94.90
2019-01-24T02:59:09.784Z,94.90
2019-01-24T03:01:49.921Z,95.00
2019-01-24T03:04:30.402Z,95.00
2019-01-24T03:07:10.827Z,95.30
2019-01-24T03:09:51.053Z,95.30
2019-01-24T03:12:31.432Z,95.10
2019-01-24T03:15:11.689Z,94.80
2019-01-24T03:17:51.861Z,93.70
2019-01-24T03:20:32.121Z,93.60
2019-01-24T03:23:12.226Z,93.80
2019-01-24T03:25:52.348Z,93.90
2019-01-24T03:28:32.385Z,94.10
2019-01-24T03:31:12.563Z,94.30
2019-01-24T03:33:52.829Z,94.10
2019-01-24T03:36:32.925Z,93.50
2019-01-24T03:39:13.012Z,93.10
2019-01-24T03:41:53.029Z,93.30
2019-01-24T03:44:33.166Z,93.40
2019-01-24T03:47:13.269Z,93.30
2019-01-24T03:49:53.160Z,93.20
2019-01-24T03:52:33.542Z,93.60
2019-01-24T03:55:13.737Z,93.50
2019-01-24T03:57:53.859Z,93.50
2019-01-24T04:00:34.134Z,93.80
2019-01-24T04:03:14.075Z,93.70
2019-01-24T04:05:53.923Z,93.80
2019-01-24T04:08:34.098Z,93.80
2019-01-24T04:11:14.085Z,93.60
2019-01-24T04:13:54.235Z,93.70
2019-01-24T04:16:34.370Z,93.80
2019-01-24T04:19:14.312Z,93.70
2019-01-24T04:21:41.208Z,94.10
2019-01-24T04:24:21.036Z,94.10
2019-01-24T04:27:01.365Z,94.20
2019-01-24T04:29:41.476Z,94.20
2019-01-24T04:32:21.794Z,93.80
2019-01-24T04:35:01.864Z,93.70
2019-01-24T04:37:42.143Z,93.20
2019-01-24T04:40:21.867Z,92.90
2019-01-24T04:43:02.033Z,92.60
2019-01-24T04:45:42.183Z,92.50
2019-01-24T04:48:22.158Z,92.70
2019-01-24T04:51:02.433Z,92.90
2019-01-24T04:53:42.653Z,91.90
2019-01-24T04:56:22.962Z,92.00
2019-01-24T04:59:03.233Z,92.50
2019-01-24T05:01:43.228Z,92.70
2019-01-24T05:04:23.217Z,93.10
2019-01-24T05:07:03.137Z,93.10
2019-01-24T05:09:43.232Z,93.20
2019-01-24T05:12:23.220Z,93.30
2019-01-24T05:15:03.258Z,93.50
2019-01-24T05:17:43.393Z,94.00
2019-01-24T08:47:35.972Z,95.20
2019-01-24T08:50:15.631Z,95.30
2019-01-24T08:52:55.664Z,95.20
2019-01-24T08:55:35.736Z,95.30
2019-01-24T08:58:15.960Z,95.10
2019-01-24T09:00:55.824Z,94.80
2019-01-24T09:03:35.974Z,94.70
2019-01-24T09:06:22.354Z,94.40
2019-01-24T09:08:57.899Z,94.50
2019-01-24T09:11:37.764Z,94.50
2019-01-24T09:14:17.601Z,94.10
2019-01-24T09:16:57.595Z,94.30
2019-01-24T09:19:37.665Z,94.00
2019-01-24T09:22:17.834Z,93.60
2019-01-24T09:24:57.799Z,93.30
2019-01-24T09:30:16.771Z,93.20
2019-01-24T09:32:56.750Z,93.40
2019-01-24T09:35:36.792Z,92.80
2019-01-24T09:38:16.665Z,91.90
2019-01-24T09:40:56.457Z,92.10
2019-01-24T09:43:36.379Z,92.30
2019-01-24T09:46:16.336Z,92.10
2019-01-24T09:48:56.173Z,91.50
2019-01-24T09:51:36.045Z,91.20
2019-01-24T09:54:15.788Z,91.20
2019-01-24T09:56:55.721Z,90.70
2019-01-24T09:59:35.740Z,90.40
2019-01-24T10:02:15.652Z,89.30
2019-01-24T10:04:55.613Z,88.60
2019-01-24T10:07:35.564Z,87.80
2019-01-24T10:10:15.630Z,87.70
2019-01-24T10:12:55.641Z,87.60
2019-01-24T10:15:35.604Z,87.90
2019-01-24T10:18:21.466Z,87.50
2019-01-24T10:20:56.460Z,87.50
2019-01-24T10:23:36.603Z,87.20
2019-01-24T10:26:16.565Z,87.00
2019-01-24T10:28:56.408Z,87.10
2019-01-24T10:31:36.450Z,86.90
2019-01-24T10:34:16.325Z,86.90
2019-01-24T10:36:56.269Z,86.50
2019-01-24T10:39:36.223Z,86.20
2019-01-24T10:42:16.273Z,85.80
2019-01-24T10:44:56.137Z,85.90
2019-01-24T10:47:36.028Z,85.40
2019-01-24T10:50:16.018Z,83.20
2019-01-24T10:52:56.048Z,82.80
2019-01-24T10:55:35.897Z,82.40
2019-01-24T10:58:15.925Z,81.50
2019-01-24T11:00:55.753Z,82.60
2019-01-24T11:03:35.778Z,82.80
2019-01-24T11:06:15.866Z,83.00
2019-01-24T11:08:59.952Z,83.60
2019-01-24T11:11:39.986Z,84.30
2019-01-24T11:14:19.745Z,84.90
2019-01-24T11:16:59.684Z,84.70
2019-01-24T11:19:39.643Z,84.50
2019-01-24T11:22:19.638Z,84.10
2019-01-24T11:24:59.353Z,84.70
2019-01-24T11:27:39.321Z,84.50
2019-01-24T11:30:19.246Z,84.70
2019-01-24T11:32:59.236Z,84.90
2019-01-24T11:35:39.137Z,84.90
2019-01-24T11:38:19.148Z,84.50
2019-01-24T11:40:59.021Z,84.50
2019-01-24T11:43:39.043Z,84.30
2019-01-24T11:46:19.158Z,84.20
2019-01-24T11:48:59.137Z,83.70
2019-01-24T11:51:39.073Z,84.30
2019-01-24T11:54:19.096Z,84.40
2019-01-24T11:56:59.263Z,84.20
2019-01-24T11:59:39.194Z,83.10
2019-01-24T12:02:19.443Z,82.60
2019-01-24T12:04:59.528Z,82.60
2019-01-24T12:07:39.504Z,81.70
2019-01-24T12:10:19.863Z,80.90
2019-01-24T12:12:59.947Z,80.20
2019-01-24T12:15:40.082Z,79.50
2019-01-24T12:18:20.200Z,79.40
2019-01-24T12:21:00.180Z,79.40
2019-01-24T12:23:40.570Z,79.50
2019-01-24T12:26:20.367Z,79.80
2019-01-24T12:28:47.064Z,79.40
2019-01-24T12:31:13.592Z,79.60
2019-01-24T12:33:40.147Z,79.50
2019-01-24T12:36:26.552Z,79.80
2019-01-24T12:39:12.869Z,79.80
2019-01-24T12:41:59.179Z,80.30
2019-01-24T12:44:45.480Z,80.30
2019-01-24T12:47:12.040Z,80.10
2019-01-24T12:49:58.344Z,80.20
2019-01-24T12:52:44.649Z,80.20
2019-01-24T12:55:30.966Z,79.30
2019-01-24T12:58:17.413Z,79.90
2019-01-24T13:01:03.742Z,79.60
2019-01-24T13:03:50.045Z,78.80
2019-01-24T13:06:36.381Z,79.20
2019-01-24T13:09:22.697Z,78.30
2019-01-24T13:12:09.016Z,77.90
2019-01-24T13:14:35.582Z,77.40
2019-01-24T13:17:21.883Z,76.40
2019-01-24T13:20:08.194Z,76.60
2019-01-24T13:22:34.834Z,76.80
2019-01-24T13:25:21.130Z,77.80
2019-01-24T13:27:47.690Z,77.90
2019-01-24T13:30:33.998Z,78.50
2019-01-24T13:33:20.438Z,79.20
2019-01-24T13:36:06.760Z,79.90
2019-01-24T13:38:53.238Z,80.10
2019-01-24T13:41:42.634Z,80.80
2019-01-24T13:44:27.974Z,81.20
2019-01-24T13:47:14.308Z,81.50
2019-01-24T13:50:00.711Z,81.40
2019-01-24T13:52:47.055Z,82.30
2019-01-24T13:55:13.617Z,81.90
2019-01-24T13:57:59.925Z,82.60
2019-01-24T14:00:46.230Z,82.60
2019-01-24T14:03:32.671Z,82.60
2019-01-24T14:06:18.993Z,82.20
2019-01-24T14:09:05.328Z,82.10
2019-01-24T14:11:51.620Z,82.70
2019-01-24T14:14:37.933Z,82.80
2019-01-24T14:17:24.238Z,82.10
2019-01-24T14:22:52.189Z,83.30
2019-01-24T14:25:38.496Z,83.70
2019-01-24T14:31:56.548Z,83.70
2019-01-24T14:34:42.844Z,84.20
2019-01-24T14:37:29.140Z,84.20
2019-01-24T14:40:15.445Z,84.10
2019-01-24T14:43:01.747Z,84.10
2019-01-24T14:45:48.043Z,84.50
2019-01-24T14:48:34.344Z,83.50
2019-01-24T14:51:20.644Z,84.10
2019-01-24T14:54:06.950Z,84.10
2019-01-24T14:56:53.244Z,84.30
2019-01-24T14:59:39.546Z,84.60
2019-01-24T15:02:25.853Z,84.10
2019-01-24T15:05:12.157Z,84.40
2019-01-24T15:07:58.642Z,84.60
2019-01-24T15:10:44.954Z,85.60
2019-01-24T15:13:33.184Z,85.30
2019-01-24T15:16:19.497Z,85.60
2019-01-24T19:30:49.873Z,98.10
2019-01-24T19:33:29.621Z,98.50
2019-01-24T19:36:09.502Z,98.50
2019-01-24T19:38:53.268Z,98.50
2019-01-24T19:41:31.615Z,98.50
2019-01-24T19:44:15.629Z,98.50
2019-01-24T19:46:52.580Z,98.50
2019-01-24T19:49:32.713Z,98.50
2019-01-24T19:52:12.624Z,98.20
2019-01-24T19:54:52.710Z,98.30
2019-01-24T19:57:32.735Z,98.50
2019-01-24T20:00:12.837Z,98.30
2019-01-24T20:02:52.844Z,98.30
2019-01-24T20:05:33.034Z,98.50
2019-01-24T20:08:12.904Z,98.50
2019-01-24T20:10:52.896Z,98.50
2019-01-24T20:13:32.913Z,98.50
2019-01-24T20:16:13.020Z,98.50
2019-01-24T20:18:52.913Z,98.50
2019-01-24T20:21:35.109Z,98.50
2019-01-24T20:24:14.913Z,98.50
2019-01-24T20:26:55.018Z,98.50
2019-01-24T20:29:35.436Z,98.50
2019-01-24T20:32:15.119Z,98.50
2019-01-24T20:34:54.976Z,98.50
2019-01-24T20:37:34.754Z,98.20
2019-01-24T20:40:14.787Z,97.70
2019-01-24T20:42:54.709Z,97.00
2019-01-24T20:45:35.606Z,96.90
2019-01-24T20:48:15.716Z,96.60
2019-01-24T20:50:55.357Z,96.50
2019-01-24T20:53:35.106Z,96.10
2019-01-24T20:56:15.119Z,96.20
2019-01-24T20:58:55.074Z,96.10
2019-01-24T21:01:35.016Z,96.20
2019-01-24T21:04:15.992Z,96.40
2019-01-24T21:06:55.798Z,96.60
2019-01-24T21:09:35.737Z,96.70
2019-01-24T21:12:15.785Z,97.00
2019-01-24T21:14:55.952Z,97.10
2019-01-24T21:17:36.028Z,97.00
2019-01-24T21:20:16.135Z,97.10
2019-01-24T21:22:55.984Z,97.00
2019-01-24T21:25:35.998Z,97.20
2019-01-24T21:28:16.098Z,97.10
2019-01-24T21:30:56.225Z,97.30
2019-01-24T21:33:36.155Z,97.40
2019-01-24T21:36:16.227Z,97.50
2019-01-24T21:38:56.214Z,97.70
2019-01-24T21:41:36.110Z,97.50
2019-01-24T21:44:16.069Z,97.40
2019-01-24T21:46:56.057Z,97.50
2019-01-24T21:49:35.969Z,97.60
2019-01-24T21:52:16.041Z,97.60
2019-01-24T21:54:55.839Z,97.50
2019-01-24T21:57:35.751Z,97.40
2019-01-24T22:00:15.774Z,97.40
2019-01-24T22:02:54.965Z,97.40
2019-01-24T22:05:34.890Z,97.40
2019-01-24T22:08:14.816Z,97.50
2019-01-24T22:10:54.839Z,97.50
2019-01-24T22:13:34.742Z,97.50
2019-01-24T22:16:14.870Z,97.20
2019-01-24T22:18:54.878Z,97.00
2019-01-24T22:21:34.715Z,96.40
2019-01-24T22:24:14.793Z,96.10
2019-01-24T22:26:54.737Z,96.40
2019-01-24T22:29:34.526Z,96.60
2019-01-24T22:32:14.614Z,96.90
2019-01-24T22:34:54.617Z,96.80
2019-01-24T22:37:34.685Z,96.80
2019-01-24T22:40:14.601Z,96.70
2019-01-24T22:42:54.672Z,96.60
2019-01-24T22:45:34.526Z,96.60
2019-01-24T22:48:14.578Z,96.60
2019-01-24T22:50:54.672Z,96.30
2019-01-24T22:53:34.573Z,96.10
2019-01-24T22:56:14.502Z,96.30
2019-01-24T22:58:54.335Z,96.30
2019-01-24T23:01:33.585Z,96.40
2019-01-24T23:04:13.538Z,96.40
2019-01-24T23:06:53.455Z,96.40
2019-01-24T23:09:33.384Z,96.70
2019-01-24T23:12:13.365Z,97.00
2019-01-24T23:14:53.357Z,97.10
2019-01-24T23:17:35.364Z,97.20
2019-01-24T23:20:15.285Z,97.40
2019-01-24T23:22:55.351Z,97.40
2019-01-24T23:25:35.385Z,97.50
2019-01-24T23:28:15.368Z,97.40
2019-01-24T23:30:55.156Z,97.00
2019-01-24T23:33:35.021Z,96.10
2019-01-24T23:36:14.777Z,96.10
2019-01-24T23:38:54.809Z,96.00
2019-01-24T23:41:34.795Z,96.30
2019-01-24T23:44:14.772Z,96.30
2019-01-24T23:46:54.608Z,96.30
2019-01-24T23:49:34.518Z,96.30
2019-01-24T23:52:14.649Z,96.40
2019-01-24T23:54:54.493Z,96.60
2019-01-24T23:57:34.666Z,96.10
